Eviapetrol II — SY6858 — position and weather

sailwx.info

Track history (hours):
 
Tides and Currents Weather Stations Pressure Air Temp Water Temp Dewpoint Dewpoint Depression Visibility Wind Speed Wind Dir Waves Ship Positions

Eviapetrol II

Last reported at 2016-Aug-24 07:31 UTC. Time now 2016-Aug-26 20:02 UTC.
Position N 37°34' E 023°50'.

Length 78 m; draft 4 m.

Type: Tanker. MMSI: 240493000.

Date/timePositionNaut miles runAvg speedWind from/ knotsBaromVisibWave heightAir tempDewpointWater temp
2016-Aug-24 07:31N 37°34' E 023°50'1010.0
2016-Aug-24 06:33N 37°41' E 023°42'2010.1
2016-Aug-24 04:33N 37°60' E 023°33'3 2.6
2016-Aug-24 03:33N 38°02' E 023°35'0 0.0
2016-Aug-24 02:31N 38°02' E 023°35'0 0.0
2016-Aug-24 01:33N 38°02' E 023°35'0 0.4
2016-Aug-24 00:33N 38°02' E 023°36'0 0.0
2016-Aug-23 20:19N 38°02' E 023°36'0 0.0
2016-Aug-23 19:31N 38°02' E 023°36'0 0.0
2016-Aug-23 18:30N 38°02' E 023°36'0 0.0
2016-Aug-23 17:30N 38°02' E 023°36'0 0.0
2016-Aug-23 16:30N 38°02' E 023°36'0 0.0
2016-Aug-23 15:28N 38°02' E 023°36'0 0.0
2016-Aug-23 14:30N 38°02' E 023°36'1 1.2
2016-Aug-23 13:33N 38°01' E 023°35'6 5.9
2016-Aug-23 12:33N 37°55' E 023°36'1110.8
2016-Aug-23 11:33N 37°46' E 023°43'1111.0
2016-Aug-23 10:33N 37°36' E 023°48'1111.1
2016-Aug-23 09:33N 37°26' E 023°54'  
2016-Aug-20 19:33N 37°27' E 023°49'1010.2
2016-Aug-20 18:33N 37°36' E 023°44'1010.4
2016-Aug-20 17:33N 37°45' E 023°38'1010.3
2016-Aug-20 16:33N 37°55' E 023°36'6 5.9
2016-Aug-20 15:33N 38°01' E 023°33'2 1.9
2016-Aug-20 14:30N 38°02' E 023°36'0 0.0
2016-Aug-20 13:33N 38°02' E 023°36'0 0.0
2016-Aug-20 12:33N 38°02' E 023°36'0 0.0
2016-Aug-20 11:29N 38°02' E 023°36'0 0.0
2016-Aug-20 10:33N 38°02' E 023°36'0 0.0
2016-Aug-20 09:33N 38°02' E 023°36'0 0.0
2016-Aug-20 08:33N 38°02' E 023°36'0 0.0
2016-Aug-20 07:33N 38°02' E 023°36'0 0.0
2016-Aug-20 06:33N 38°02' E 023°36'0 0.0
2016-Aug-20 05:33N 38°02' E 023°36'0 0.0
2016-Aug-20 04:33N 38°02' E 023°36'0 0.0
2016-Aug-20 03:33N 38°02' E 023°36'0 0.0
2016-Aug-20 02:33N 38°02' E 023°36'0 0.0
2016-Aug-20 01:33N 38°02' E 023°36'2 2.1
2016-Aug-20 00:33N 38°02' E 023°33'7 7.3
2016-Aug-19 23:33N 37°58' E 023°25'1110.7
2016-Aug-19 22:33N 37°48' E 023°19'9 9.1
2016-Aug-19 21:33N 37°40' E 023°21'1010.1
2016-Aug-19 20:33N 37°33' E 023°31'1010.0
2016-Aug-19 19:33N 37°28' E 023°42'1110.7
2016-Aug-19 18:31N 37°22' E 023°53'  
2016-Aug-16 03:27N 37°33' E 025°17'6 6.1
2016-Aug-16 02:30N 37°31' E 025°10'0 0.0
2016-Aug-16 01:12N 37°31' E 025°10'0 0.0
2016-Aug-16 00:30N 37°31' E 025°10'0 0.0
2016-Aug-15 23:30N 37°31' E 025°10'0 0.0
2016-Aug-15 22:33N 37°31' E 025°10'0 0.0
2016-Aug-15 21:30N 37°31' E 025°10'0 0.0
2016-Aug-15 20:33N 37°31' E 025°10'0 0.0
2016-Aug-15 19:18N 37°31' E 025°10'0 0.0
2016-Aug-15 18:32N 37°31' E 025°10'0 0.0
2016-Aug-15 17:31N 37°31' E 025°10'0 0.0
2016-Aug-15 16:27N 37°31' E 025°10'0 0.0
2016-Aug-15 15:33N 37°31' E 025°10'0 0.0
2016-Aug-15 14:33N 37°31' E 025°10'0 0.0
2016-Aug-15 13:33N 37°31' E 025°10'0 0.0
2016-Aug-15 12:33N 37°31' E 025°10'0 0.2
2016-Aug-15 11:33N 37°31' E 025°10'1 1.1
2016-Aug-15 10:23N 37°31' E 025°08'55 2.7
2016-Aug-14 14:10N 37°39' E 023°59'5 8.3
2016-Aug-14 13:33N 37°38' E 023°53'9 9.0
2016-Aug-14 12:33N 37°41' E 023°42'1010.2
2016-Aug-14 11:33N 37°50' E 023°37'9 8.7
2016-Aug-14 10:33N 37°58' E 023°33'4 2.2
2016-Aug-14 08:33N 38°02' E 023°30'  
Track history (hours):
 
Tides and Currents Weather Stations Pressure Air Temp Water Temp Dewpoint Dewpoint Depression Visibility Wind Speed Wind Dir Waves Ship Positions

Eviapetrol II

Last reported at 2016-Aug-24 07:31 UTC. Time now 2016-Aug-26 20:02 UTC.
Position N 37°34' E 023°50'.

Length 78 m; draft 4 m.

Type: Tanker. MMSI: 240493000.

Date/timePositionNaut miles runAvg speedWind from/ knotsBaromVisibWave heightAir tempDewpointWater temp
2016-Aug-24 07:31N 37°34' E 023°50'1010.0
2016-Aug-24 06:33N 37°41' E 023°42'2010.1
2016-Aug-24 04:33N 37°60' E 023°33'3 2.6
2016-Aug-24 03:33N 38°02' E 023°35'0 0.0
2016-Aug-24 02:31N 38°02' E 023°35'0 0.0
2016-Aug-24 01:33N 38°02' E 023°35'0 0.4
2016-Aug-24 00:33N 38°02' E 023°36'0 0.0
2016-Aug-23 20:19N 38°02' E 023°36'0 0.0
2016-Aug-23 19:31N 38°02' E 023°36'0 0.0
2016-Aug-23 18:30N 38°02' E 023°36'0 0.0
2016-Aug-23 17:30N 38°02' E 023°36'0 0.0
2016-Aug-23 16:30N 38°02' E 023°36'0 0.0
2016-Aug-23 15:28N 38°02' E 023°36'0 0.0
2016-Aug-23 14:30N 38°02' E 023°36'1 1.2
2016-Aug-23 13:33N 38°01' E 023°35'6 5.9
2016-Aug-23 12:33N 37°55' E 023°36'1110.8
2016-Aug-23 11:33N 37°46' E 023°43'1111.0
2016-Aug-23 10:33N 37°36' E 023°48'1111.1
2016-Aug-23 09:33N 37°26' E 023°54'  
2016-Aug-20 19:33N 37°27' E 023°49'1010.2
2016-Aug-20 18:33N 37°36' E 023°44'1010.4
2016-Aug-20 17:33N 37°45' E 023°38'1010.3
2016-Aug-20 16:33N 37°55' E 023°36'6 5.9
2016-Aug-20 15:33N 38°01' E 023°33'2 1.9
2016-Aug-20 14:30N 38°02' E 023°36'0 0.0
2016-Aug-20 13:33N 38°02' E 023°36'0 0.0
2016-Aug-20 12:33N 38°02' E 023°36'0 0.0
2016-Aug-20 11:29N 38°02' E 023°36'0 0.0
2016-Aug-20 10:33N 38°02' E 023°36'0 0.0
2016-Aug-20 09:33N 38°02' E 023°36'0 0.0
2016-Aug-20 08:33N 38°02' E 023°36'0 0.0
2016-Aug-20 07:33N 38°02' E 023°36'0 0.0
2016-Aug-20 06:33N 38°02' E 023°36'0 0.0
2016-Aug-20 05:33N 38°02' E 023°36'0 0.0
2016-Aug-20 04:33N 38°02' E 023°36'0 0.0
2016-Aug-20 03:33N 38°02' E 023°36'0 0.0
2016-Aug-20 02:33N 38°02' E 023°36'0 0.0
2016-Aug-20 01:33N 38°02' E 023°36'2 2.1
2016-Aug-20 00:33N 38°02' E 023°33'7 7.3
2016-Aug-19 23:33N 37°58' E 023°25'1110.7
2016-Aug-19 22:33N 37°48' E 023°19'9 9.1
2016-Aug-19 21:33N 37°40' E 023°21'1010.1
2016-Aug-19 20:33N 37°33' E 023°31'1010.0
2016-Aug-19 19:33N 37°28' E 023°42'1110.7
2016-Aug-19 18:31N 37°22' E 023°53'  
2016-Aug-16 03:27N 37°33' E 025°17'6 6.1
2016-Aug-16 02:30N 37°31' E 025°10'0 0.0
2016-Aug-16 01:12N 37°31' E 025°10'0 0.0
2016-Aug-16 00:30N 37°31' E 025°10'0 0.0
2016-Aug-15 23:30N 37°31' E 025°10'0 0.0
2016-Aug-15 22:33N 37°31' E 025°10'0 0.0
2016-Aug-15 21:30N 37°31' E 025°10'0 0.0
2016-Aug-15 20:33N 37°31' E 025°10'0 0.0
2016-Aug-15 19:18N 37°31' E 025°10'0 0.0
2016-Aug-15 18:32N 37°31' E 025°10'0 0.0
2016-Aug-15 17:31N 37°31' E 025°10'0 0.0
2016-Aug-15 16:27N 37°31' E 025°10'0 0.0
2016-Aug-15 15:33N 37°31' E 025°10'0 0.0
2016-Aug-15 14:33N 37°31' E 025°10'0 0.0
2016-Aug-15 13:33N 37°31' E 025°10'0 0.0
2016-Aug-15 12:33N 37°31' E 025°10'0 0.2
2016-Aug-15 11:33N 37°31' E 025°10'1 1.1
2016-Aug-15 10:23N 37°31' E 025°08'55 2.7
2016-Aug-14 14:10N 37°39' E 023°59'5 8.3
2016-Aug-14 13:33N 37°38' E 023°53'9 9.0
2016-Aug-14 12:33N 37°41' E 023°42'1010.2
2016-Aug-14 11:33N 37°50' E 023°37'9 8.7
2016-Aug-14 10:33N 37°58' E 023°33'4 2.2
2016-Aug-14 08:33N 38°02' E 023°30'  

Dump ship's entire track history